createdAt,value
2018-04-23T00:00:21.016Z,162472.14
2018-04-23T00:02:48.615Z,162480.03
2018-04-23T00:05:16.414Z,162472.14
2018-04-23T00:07:44.234Z,162470.19
2018-04-23T00:10:11.973Z,162459.03
2018-04-23T00:12:39.583Z,162475.41
2018-04-23T00:15:07.152Z,162445.92
2018-04-23T00:17:34.701Z,162462.30
2018-04-23T00:20:02.297Z,162479.37
2018-04-23T00:22:30.003Z,162480.03
2018-04-23T00:24:57.567Z,162528.53
2018-04-23T00:27:25.135Z,162523.27
2018-04-23T00:29:52.728Z,162507.55
2018-04-23T00:32:20.332Z,162491.17
2018-04-23T00:34:48.081Z,162501.67
2018-04-23T00:37:15.653Z,162473.45
2018-04-23T00:39:43.213Z,162501.67
2018-04-23T00:42:10.793Z,162474.75
2018-04-23T00:44:38.375Z,162509.50
2018-04-23T00:47:05.934Z,162475.41
2018-04-23T00:49:33.558Z,162470.84
2018-04-23T00:52:01.144Z,162453.81
2018-04-23T00:54:28.943Z,162471.50
2018-04-23T00:56:56.551Z,162458.38
2018-04-23T00:59:24.120Z,162462.30
2018-04-23T01:01:51.696Z,162452.50
2018-04-23T01:04:19.451Z,162466.27
2018-04-23T01:06:47.084Z,162447.23
2018-04-23T01:09:14.898Z,162463.61
2018-04-23T01:11:42.699Z,162480.03
2018-04-23T01:14:10.759Z,162426.25
2018-04-23T01:16:38.326Z,162413.14
2018-04-23T01:19:06.239Z,162386.28
2018-04-23T01:21:33.815Z,162392.20
2018-04-23T01:24:01.456Z,162408.56
2018-04-23T01:26:29.271Z,162399.38
2018-04-23T01:28:56.841Z,162384.97
2018-04-23T01:31:24.405Z,162418.41
2018-04-23T01:33:52.168Z,162411.19
2018-04-23T01:36:19.795Z,162417.11
2018-04-23T01:38:47.517Z,162394.81
2018-04-23T01:41:15.139Z,162404.66
2018-04-23T01:43:42.813Z,162381.05
2018-04-23T01:46:10.368Z,162361.38
2018-04-23T01:48:38.321Z,162362.03
2018-04-23T01:51:05.872Z,162366.59
2018-04-23T01:53:33.436Z,162351.53
2018-04-23T01:56:01.016Z,162343.05
2018-04-23T01:58:28.715Z,162334.52
2018-04-23T02:00:56.324Z,162309.61
2018-04-23T02:03:23.959Z,162322.72
2018-04-23T02:05:51.548Z,162306.34
2018-04-23T02:08:19.108Z,162289.28
2018-04-23T02:10:46.892Z,162259.81
2018-04-23T02:13:14.486Z,162254.55
2018-04-23T02:15:42.058Z,162268.95
2018-04-23T02:18:10.327Z,162269.66
2018-04-23T02:20:37.880Z,162269.66
2018-04-23T02:23:05.678Z,162237.48
2018-04-23T02:25:33.263Z,162221.78
2018-04-23T02:28:00.888Z,162208.67
2018-04-23T02:30:28.705Z,162217.16
2018-04-23T02:32:56.483Z,162213.89
2018-04-23T02:35:24.091Z,162212.59
2018-04-23T02:37:51.705Z,162165.41
2018-04-23T02:40:19.511Z,162189.00
2018-04-23T02:42:47.082Z,162204.72
2018-04-23T02:45:14.707Z,162204.72
2018-04-23T02:47:42.267Z,162165.41
2018-04-23T02:50:09.869Z,162165.41
2018-04-23T02:52:37.423Z,162158.84
2018-04-23T02:55:04.988Z,162151.02
2018-04-23T02:57:32.601Z,162169.97
2018-04-23T03:00:00.166Z,162153.62
2018-04-23T03:02:27.847Z,162172.64
2018-04-23T03:04:55.431Z,162150.36
2018-04-23T03:07:23.225Z,162137.27
2018-04-23T03:09:50.777Z,162132.66
2018-04-23T03:12:18.381Z,162117.59
2018-04-23T03:14:45.944Z,162108.41
2018-04-23T03:17:13.533Z,162110.38
2018-04-23T03:19:41.121Z,162107.75
2018-04-23T03:22:09.072Z,162112.38
2018-04-23T03:24:36.656Z,162089.44
2018-04-23T03:27:04.286Z,162107.11
2018-04-23T03:29:31.836Z,162085.48
2018-04-23T03:31:59.399Z,162095.97
2018-04-23T03:34:27.483Z,162108.41
2018-04-23T03:36:55.041Z,162105.16
2018-04-23T03:39:22.627Z,162111.06
2018-04-23T03:41:50.377Z,162084.83
2018-04-23T03:44:17.944Z,162057.98
2018-04-23T03:46:45.668Z,162030.50
2018-04-23T03:49:13.213Z,162039.03
2018-04-23T03:51:40.765Z,162026.58
2018-04-23T03:54:08.504Z,162024.58
2018-04-23T03:56:36.327Z,162003.00
2018-04-23T03:59:03.953Z,162016.09
2018-04-23T04:01:31.557Z,161990.56
2018-04-23T04:03:59.148Z,162027.23
2018-04-23T04:06:26.800Z,162023.92
2018-04-23T04:08:54.371Z,162051.47
2018-04-23T04:11:21.927Z,162071.73
2018-04-23T04:14:01.461Z,162029.19
2018-04-23T04:16:40.982Z,161993.83
2018-04-23T04:19:08.573Z,162014.14
2018-04-23T04:21:36.125Z,162024.58
2018-04-23T04:24:04.316Z,162023.27
2018-04-23T04:26:31.888Z,162004.31
2018-04-23T04:29:00.409Z,162031.16
2018-04-23T04:31:28.056Z,161997.75
2018-04-23T04:33:55.622Z,162025.23
2018-04-23T04:36:23.176Z,162008.22
2018-04-23T04:38:50.901Z,161980.73
2018-04-23T04:41:18.450Z,162003.66
2018-04-23T04:43:46.021Z,161987.25
2018-04-23T04:46:14.675Z,161979.44
2018-04-23T04:48:42.236Z,161968.30
2018-04-23T04:51:10.309Z,161940.81
2018-04-23T04:53:37.868Z,161944.08
2018-04-23T04:56:05.434Z,161940.11
2018-04-23T04:58:33.520Z,161927.67
2018-04-23T05:01:01.421Z,161929.67
2018-04-23T05:03:28.997Z,161923.11
2018-04-23T05:05:56.618Z,161880.58
2018-04-23T05:08:24.426Z,161884.50
2018-04-23T05:10:52.051Z,161905.45
2018-04-23T05:13:19.669Z,161891.72
2018-04-23T05:15:47.314Z,161866.09
2018-04-23T05:18:14.882Z,161862.83
2018-04-23T05:20:42.565Z,161853.00
2018-04-23T05:23:10.378Z,161856.97
2018-04-23T05:25:37.948Z,161843.22
2018-04-23T05:28:05.687Z,161869.41
2018-04-23T05:30:33.295Z,161868.09
2018-04-23T05:33:00.857Z,161843.88
2018-04-23T05:35:28.651Z,161892.38
2018-04-23T05:37:56.230Z,161913.28
2018-04-23T05:40:23.803Z,161889.70
2018-04-23T05:42:51.956Z,161943.42
2018-04-23T05:45:19.527Z,161910.02
2018-04-23T05:47:47.085Z,161934.89
2018-04-23T05:50:14.801Z,162011.48
2018-04-23T05:52:42.566Z,161920.50
2018-04-23T05:55:10.264Z,162120.20
2018-04-23T05:57:37.809Z,162289.28
2018-04-23T06:00:05.381Z,162153.62
2018-04-23T06:02:33.185Z,162465.61
2018-04-23T06:05:00.860Z,162422.33
2018-04-23T06:07:28.476Z,162403.30
2018-04-23T06:09:56.036Z,162327.94
2018-04-23T06:12:23.592Z,162491.83
2018-04-23T06:14:51.704Z,162512.12
2018-04-23T06:17:19.266Z,162476.70
2018-04-23T06:19:46.871Z,162519.34
2018-04-23T06:22:14.618Z,162439.34
2018-04-23T06:24:42.181Z,162842.72
2018-04-23T06:27:10.048Z,162575.81
2018-04-23T06:29:37.822Z,162634.12
2018-04-23T06:32:05.540Z,162389.55
2018-04-23T06:34:33.172Z,162413.78
2018-04-23T06:37:00.741Z,162297.16
2018-04-23T06:39:28.318Z,162190.31
2018-04-23T06:41:55.891Z,162186.39
2018-04-23T06:44:23.922Z,162167.37
2018-04-23T06:46:51.484Z,162164.77
2018-04-23T06:49:19.049Z,162111.06
2018-04-23T06:51:46.831Z,162171.28
2018-04-23T06:54:14.580Z,162189.00
2018-04-23T06:56:42.161Z,162157.53
2018-04-23T06:59:09.772Z,162194.22
2018-04-23T07:01:37.353Z,162251.28
2018-04-23T07:04:05.421Z,162255.84
2018-04-23T07:06:33.066Z,162358.11
2018-04-23T07:09:00.616Z,162427.55
2018-04-23T07:11:28.218Z,162320.11
2018-04-23T07:13:55.780Z,162436.73
2018-04-23T07:16:23.351Z,162471.50
2018-04-23T07:18:51.131Z,162406.61
2018-04-23T07:21:18.678Z,162418.41
2018-04-23T07:23:46.273Z,162436.73
2018-04-23T07:26:13.863Z,162455.77
2018-04-23T07:28:41.412Z,162386.92
2018-04-23T07:31:09.028Z,162345.00
2018-04-23T07:33:36.580Z,162284.06
2018-04-23T07:36:04.147Z,162273.58
2018-04-23T07:38:32.228Z,162325.33
2018-04-23T07:40:59.812Z,162341.03
2018-04-23T07:43:27.586Z,162337.78
2018-04-23T07:45:55.163Z,162436.73
2018-04-23T07:48:22.717Z,162540.34
2018-04-23T07:50:50.310Z,162471.50
2018-04-23T07:53:17.905Z,162538.39
2018-04-23T07:55:45.654Z,162626.95
2018-04-23T07:58:13.432Z,162465.61
2018-04-23T08:00:40.979Z,162478.72
2018-04-23T08:03:08.588Z,162610.53
2018-04-23T08:05:36.255Z,162580.38
2018-04-23T08:08:03.978Z,162539.03
2018-04-23T08:10:31.570Z,162567.92
2018-04-23T08:12:59.118Z,162624.98
2018-04-23T08:15:26.889Z,162722.72
2018-04-23T08:17:54.632Z,162662.37
2018-04-23T08:20:22.409Z,162655.78
2018-04-23T08:22:51.886Z,162644.63
2018-04-23T08:25:19.706Z,162795.53
2018-04-23T08:27:47.355Z,162793.52
2018-04-23T08:30:14.941Z,162634.12
2018-04-23T08:32:42.490Z,162729.25
2018-04-23T08:35:10.322Z,162780.41
2018-04-23T08:37:37.887Z,162790.91
2018-04-23T08:40:05.460Z,162746.33
2018-04-23T08:42:33.035Z,162894.00
2018-04-23T08:45:01.214Z,162716.78
2018-04-23T08:47:28.771Z,162832.28
2018-04-23T08:49:56.464Z,162871.03
2018-04-23T08:52:24.056Z,162702.36
2018-04-23T08:54:51.643Z,162678.75
2018-04-23T08:57:19.219Z,162670.86
2018-04-23T08:59:46.977Z,162665.63
2018-04-23T09:02:14.545Z,162845.39
2018-04-23T09:04:42.266Z,162958.95
2018-04-23T09:07:10.291Z,162753.52
2018-04-23T09:09:37.862Z,162710.91
2018-04-23T09:12:05.513Z,162767.28
2018-04-23T09:14:33.097Z,162928.73
2018-04-23T09:17:00.898Z,163132.91
2018-04-23T09:19:28.742Z,163006.88
2018-04-23T09:21:56.314Z,163002.95
2018-04-23T09:24:23.879Z,163006.88
2018-04-23T09:26:51.468Z,162833.58
2018-04-23T09:29:19.060Z,162659.05
2018-04-23T09:31:46.801Z,162809.30
2018-04-23T09:34:14.769Z,162743.67
2018-04-23T09:36:42.329Z,162629.56
2018-04-23T09:39:09.892Z,162662.37
2018-04-23T09:41:37.497Z,162662.37
2018-04-23T09:44:05.430Z,162783.06
2018-04-23T09:46:32.995Z,162824.38
2018-04-23T09:49:00.648Z,162799.45
2018-04-23T09:51:28.245Z,162714.17
2018-04-23T09:53:55.800Z,162762.72
2018-04-23T09:56:23.384Z,162751.56
2018-04-23T09:58:50.974Z,162630.88
2018-04-23T10:01:20.486Z,162684.67
2018-04-23T10:03:51.035Z,162813.88
2018-04-23T10:06:18.784Z,162691.20
2018-04-23T10:08:46.593Z,162754.83
2018-04-23T10:11:14.179Z,162720.05
2018-04-23T10:13:41.769Z,162716.13
2018-04-23T10:16:09.650Z,162853.89
2018-04-23T10:18:37.396Z,162832.28
2018-04-23T10:21:05.179Z,162852.58
2018-04-23T10:23:32.746Z,162954.37
2018-04-23T10:26:00.419Z,162855.19
2018-04-23T10:28:28.203Z,162849.31
2018-04-23T10:30:55.766Z,162858.52
2018-04-23T10:33:23.346Z,162736.48
2018-04-23T10:35:51.021Z,162803.38
2018-04-23T10:38:18.805Z,162741.70
2018-04-23T10:40:46.344Z,162849.97
2018-04-23T10:43:13.958Z,162962.22
2018-04-23T10:45:41.513Z,162932.70
2018-04-23T10:48:09.055Z,162993.75
2018-04-23T10:50:36.838Z,163020.66
2018-04-23T10:53:04.756Z,163090.25
2018-04-23T10:55:32.314Z,163182.19
2018-04-23T10:57:59.872Z,163257.05
2018-04-23T11:00:27.819Z,163280.05
2018-04-23T11:02:55.383Z,163172.34
2018-04-23T11:05:22.999Z,163159.86
2018-04-23T11:07:50.603Z,163318.80
2018-04-23T11:10:18.165Z,163385.81
2018-04-23T11:12:45.717Z,163272.20
2018-04-23T11:15:13.311Z,163125.05
2018-04-23T11:17:40.858Z,163086.28
2018-04-23T11:20:08.677Z,163146.73
2018-04-23T11:22:36.251Z,162986.50
2018-04-23T11:25:03.884Z,162968.81
2018-04-23T11:27:31.463Z,163006.22
2018-04-23T11:29:59.006Z,163016.72
2018-04-23T11:32:26.975Z,163074.45
2018-04-23T11:34:54.522Z,163234.06
2018-04-23T11:37:22.077Z,163051.53
2018-04-23T11:39:49.662Z,163077.13
2018-04-23T11:42:17.227Z,163142.16
2018-04-23T11:44:44.942Z,163030.50
2018-04-23T11:47:12.608Z,163135.52
2018-04-23T11:49:40.378Z,163140.19
2018-04-23T11:52:08.464Z,163189.44
2018-04-23T11:54:36.028Z,163080.39
2018-04-23T11:57:03.569Z,163054.14
2018-04-23T11:59:31.504Z,163202.56
2018-04-23T12:01:59.057Z,163192.70
2018-04-23T12:04:26.644Z,163384.52
2018-04-23T12:06:54.252Z,163560.64
2018-04-23T12:09:22.403Z,163661.25
2018-04-23T12:11:49.950Z,163529.78
2018-04-23T12:14:17.751Z,163409.53
2018-04-23T12:16:45.812Z,163544.87
2018-04-23T12:19:13.354Z,163467.36
2018-04-23T12:21:40.929Z,163376.61
2018-04-23T12:24:08.514Z,163302.38
2018-04-23T12:26:36.329Z,163474.56
2018-04-23T12:29:03.904Z,163299.13
2018-04-23T12:31:31.495Z,163317.48
2018-04-23T12:33:59.145Z,163194.02
2018-04-23T12:36:26.885Z,163224.25
2018-04-23T12:38:55.018Z,163310.28
2018-04-23T12:41:22.579Z,163470.62
2018-04-23T12:43:50.137Z,163224.25
2018-04-23T12:46:17.761Z,163367.41
2018-04-23T12:48:45.295Z,163302.38
2018-04-23T12:51:13.191Z,163331.92
2018-04-23T12:53:40.756Z,163408.22
2018-04-23T12:56:08.314Z,163293.84
2018-04-23T12:58:35.936Z,163475.86
2018-04-23T13:01:03.496Z,163341.78
2018-04-23T13:03:31.044Z,163466.66
2018-04-23T13:05:58.625Z,163285.33
2018-04-23T13:08:26.411Z,163493.63
2018-04-23T13:10:53.983Z,163563.91
2018-04-23T13:13:21.539Z,163427.91
2018-04-23T13:15:49.123Z,163528.47
2018-04-23T13:18:16.909Z,163443.70
2018-04-23T13:20:44.470Z,163520.56
2018-04-23T13:23:12.487Z,163552.78
2018-04-23T13:25:40.026Z,163328.00
2018-04-23T13:28:07.604Z,163395.03
2018-04-23T13:30:35.207Z,163389.09
2018-04-23T13:33:02.965Z,163142.16
2018-04-23T13:35:30.524Z,163084.97
2018-04-23T13:37:58.723Z,163151.36
2018-04-23T13:40:26.280Z,163211.78
2018-04-23T13:42:53.831Z,163134.20
2018-04-23T13:45:21.408Z,163177.63
2018-04-23T13:47:48.942Z,163186.17
2018-04-23T13:50:16.603Z,163139.53
2018-04-23T13:52:44.088Z,163206.50
2018-04-23T13:55:11.738Z,163128.97
2018-04-23T13:57:39.282Z,163101.41
2018-04-23T14:00:06.848Z,163081.05
2018-04-23T14:02:34.411Z,163114.53
2018-04-23T14:05:02.335Z,163221.58
2018-04-23T14:07:29.904Z,163190.75
2018-04-23T14:09:57.457Z,163126.36
2018-04-23T14:12:25.055Z,163123.05
2018-04-23T14:14:52.794Z,163038.34
2018-04-23T14:17:20.340Z,163075.81
2018-04-23T14:19:48.102Z,163021.30
2018-04-23T14:22:15.642Z,163083.66
2018-04-23T14:24:43.196Z,163003.59
2018-04-23T14:27:10.778Z,163098.75
2018-04-23T14:29:38.588Z,163060.69
2018-04-23T14:32:06.357Z,163091.56
2018-04-23T14:34:34.095Z,163115.19
2018-04-23T14:37:02.018Z,163134.86
2018-04-23T14:39:29.572Z,163098.75
2018-04-23T14:41:57.159Z,163060.03
2018-04-23T14:44:24.741Z,163000.94
2018-04-23T14:46:52.311Z,163032.47
2018-04-23T14:49:19.907Z,163182.84
2018-04-23T14:51:47.552Z,162978.00
2018-04-23T14:54:15.110Z,163116.50
2018-04-23T14:56:43.052Z,163084.97
2018-04-23T14:59:10.794Z,163037.69
2018-04-23T15:01:38.335Z,163056.75
2018-04-23T15:04:05.906Z,163048.86
2018-04-23T15:06:33.484Z,163019.34
2018-04-23T15:09:01.290Z,162997.67
2018-04-23T15:11:28.868Z,163084.97
2018-04-23T15:13:56.657Z,163009.48
2018-04-23T15:16:24.215Z,163075.11
2018-04-23T15:18:51.778Z,163008.83
2018-04-23T15:21:19.380Z,162872.98
2018-04-23T15:23:46.928Z,162946.48
2018-04-23T15:26:14.464Z,162821.77
2018-04-23T15:28:42.284Z,162944.53
2018-04-23T15:31:09.892Z,162918.28
2018-04-23T15:33:37.621Z,162897.92
2018-04-23T15:36:05.325Z,162888.06
2018-04-23T15:38:33.091Z,162888.06
2018-04-23T15:41:00.688Z,162913.66
2018-04-23T15:43:28.747Z,163041.67
2018-04-23T15:45:56.289Z,162941.91
2018-04-23T15:48:24.099Z,162964.19
2018-04-23T15:50:52.037Z,162900.53
2018-04-23T15:53:19.651Z,162849.97
2018-04-23T15:55:47.200Z,163103.37
2018-04-23T15:58:15.105Z,162994.41
2018-04-23T16:00:42.667Z,162907.77
2018-04-23T16:03:10.465Z,163013.41
2018-04-23T16:05:38.340Z,162959.61
2018-04-23T16:08:05.924Z,163026.53
2018-04-23T16:10:33.691Z,162859.86
2018-04-23T16:13:01.255Z,162938.59
2018-04-23T16:15:28.797Z,162904.50
2018-04-23T16:17:56.414Z,162800.77
2018-04-23T16:20:23.976Z,162972.73
2018-04-23T16:22:51.765Z,162844.08
2018-04-23T16:25:19.334Z,162833.58
2018-04-23T16:27:47.066Z,162887.41
2018-04-23T16:30:14.611Z,162827.66
2018-04-23T16:32:42.521Z,162821.77
2018-04-23T16:35:10.081Z,162879.53
2018-04-23T16:37:37.632Z,162877.56
2018-04-23T16:40:05.228Z,162918.94
2018-04-23T16:42:33.115Z,162857.20
2018-04-23T16:45:00.669Z,162750.91
2018-04-23T16:47:28.241Z,162690.56
2018-04-23T16:49:55.809Z,162733.17
2018-04-23T16:52:23.509Z,162688.59
2018-04-23T16:54:51.305Z,162802.06
2018-04-23T16:57:18.862Z,162757.44
2018-04-23T16:59:46.426Z,162668.91
2018-04-23T17:02:14.020Z,162710.25
2018-04-23T17:04:41.839Z,162691.86
2018-04-23T17:07:09.392Z,162673.53
2018-04-23T17:09:37.190Z,162668.25
2018-04-23T17:12:04.809Z,162684.67
2018-04-23T17:14:32.390Z,162579.08
2018-04-23T17:16:59.935Z,162643.97
2018-04-23T17:19:27.509Z,162601.37
2018-04-23T17:21:55.135Z,162554.11
2018-04-23T17:24:22.938Z,162577.77
2018-04-23T17:26:50.791Z,162579.08
2018-04-23T17:29:18.601Z,162550.84
2018-04-23T17:31:46.374Z,162485.25
2018-04-23T17:34:14.388Z,162503.63
2018-04-23T17:36:41.942Z,162491.17
2018-04-23T17:39:09.496Z,162529.84
2018-04-23T17:41:37.221Z,162484.59
2018-04-23T17:44:04.758Z,162477.41
2018-04-23T17:46:32.531Z,162424.28
2018-04-23T17:49:00.397Z,162377.09
2018-04-23T17:51:28.617Z,162353.48
2018-04-23T17:53:56.383Z,162309.61
2018-04-23T17:56:24.252Z,162296.52
2018-04-23T17:58:52.281Z,162331.25
2018-04-23T18:01:19.822Z,162299.12
2018-04-23T18:03:47.841Z,162237.48
2018-04-23T18:06:15.687Z,162204.06
2018-04-23T18:08:43.772Z,162214.55
2018-04-23T18:11:11.451Z,162173.94
2018-04-23T18:13:39.036Z,162175.91
2018-04-23T18:16:06.702Z,162124.16
2018-04-23T18:18:35.212Z,162124.16
2018-04-23T18:21:02.964Z,162103.84
2018-04-23T18:23:30.720Z,162103.84
2018-04-23T18:25:58.421Z,162075.05
2018-04-23T18:28:25.998Z,162044.89
2018-04-23T18:30:53.563Z,162040.98
2018-04-23T18:33:21.143Z,162030.50
2018-04-23T18:35:48.697Z,161992.53
2018-04-23T18:38:16.288Z,161989.27
2018-04-23T18:40:43.841Z,161966.34
2018-04-23T18:43:11.420Z,161939.45
2018-04-23T18:45:39.025Z,161913.28
2018-04-23T18:48:06.574Z,161900.19
2018-04-23T18:50:34.197Z,161889.06
2018-04-23T18:53:02.810Z,161870.70
2018-04-23T18:55:30.442Z,161855.00
2018-04-23T18:57:58.009Z,161836.00
2018-04-23T19:00:25.984Z,161838.61
2018-04-23T19:02:53.560Z,161829.44
2018-04-23T19:05:21.132Z,161813.73
2018-04-23T19:07:49.010Z,161812.44
2018-04-23T19:10:16.584Z,161799.34
2018-04-23T19:12:44.135Z,161795.44
2018-04-23T19:15:11.726Z,161812.44
2018-04-23T19:17:39.303Z,161792.78
2018-04-23T19:20:07.120Z,161775.14
2018-04-23T19:22:34.505Z,161794.78
2018-04-23T19:25:02.076Z,161761.41
2018-04-23T19:27:29.627Z,161737.84
2018-04-23T19:29:57.394Z,161750.27
2018-04-23T19:32:25.150Z,161714.94
2018-04-23T19:34:52.700Z,161727.36
2018-04-23T19:37:20.286Z,161700.55
2018-04-23T19:39:47.872Z,161673.72
2018-04-23T19:42:15.442Z,161676.34
2018-04-23T19:44:43.008Z,161661.30
2018-04-23T19:47:10.559Z,161620.06
2018-04-23T19:49:38.149Z,161637.09
2018-04-23T19:52:05.732Z,161608.28
2018-04-23T19:54:33.621Z,161602.41
2018-04-23T19:57:01.171Z,161599.81
2018-04-23T19:59:28.735Z,161536.97
2018-04-23T20:01:56.317Z,161514.78
2018-04-23T20:04:24.120Z,161493.19
2018-04-23T20:06:52.052Z,161462.37
2018-04-23T20:09:19.560Z,161372.81
2018-04-23T20:11:47.171Z,161321.84
2018-04-23T20:14:14.927Z,161286.55
2018-04-23T20:16:42.467Z,161262.36
2018-04-23T20:19:10.202Z,161234.28
2018-04-23T20:21:37.744Z,161227.06
2018-04-23T20:24:05.305Z,161268.88
2018-04-23T20:26:32.866Z,161291.09
2018-04-23T20:29:00.403Z,161288.50
2018-04-23T20:31:28.139Z,161296.36
2018-04-23T20:33:55.689Z,161304.81
2018-04-23T20:36:23.233Z,161268.22
2018-04-23T20:38:51.073Z,161237.53
2018-04-23T20:41:18.654Z,161225.77
2018-04-23T20:43:46.197Z,161217.25
2018-04-23T20:46:13.915Z,161213.34
2018-04-23T20:48:41.535Z,161176.09
2018-04-23T20:51:09.088Z,161202.23
2018-04-23T20:53:36.844Z,161157.78
2018-04-23T20:56:04.595Z,161195.03
2018-04-23T20:58:32.218Z,161214.66
2018-04-23T21:00:59.809Z,161185.91
2018-04-23T21:03:27.361Z,161178.06
2018-04-23T21:05:55.301Z,161156.48
2018-04-23T21:08:22.848Z,161181.31
2018-04-23T21:10:50.649Z,161259.11
2018-04-23T21:13:18.213Z,161221.86
2018-04-23T21:15:45.835Z,161176.75
2018-04-23T21:18:13.384Z,161220.50
2018-04-23T21:20:40.932Z,161247.34
2018-04-23T21:23:08.519Z,161251.25
2018-04-23T21:25:36.071Z,161249.30
2018-04-23T21:28:03.665Z,161230.97
2018-04-23T21:30:31.235Z,161246.69
2018-04-23T21:32:59.423Z,161246.03
2018-04-23T21:35:26.984Z,161215.94
2018-04-23T21:37:54.540Z,161208.09
2018-04-23T21:40:22.557Z,161201.58
2018-04-23T21:42:50.098Z,161242.09
2018-04-23T21:45:17.639Z,161234.92
2018-04-23T21:47:45.248Z,161244.69
2018-04-23T21:50:12.796Z,161258.45
2018-04-23T21:52:40.349Z,161255.80
2018-04-23T21:55:08.143Z,161221.86
2018-04-23T21:57:35.692Z,161260.41
2018-04-23T22:00:03.270Z,161275.42
2018-04-23T22:02:30.853Z,161284.59
2018-04-23T22:04:58.580Z,161253.84
2018-04-23T22:07:26.115Z,161269.52
2018-04-23T22:09:53.662Z,161281.28
2018-04-23T22:12:21.281Z,161255.80
2018-04-23T22:14:48.831Z,161267.56
2018-04-23T22:17:16.666Z,161255.80
2018-04-23T22:19:44.445Z,161243.39
2018-04-23T22:22:12.001Z,161249.94
2018-04-23T22:24:39.899Z,161212.05
2018-04-23T22:27:07.472Z,161207.44
2018-04-23T22:29:35.022Z,161177.41
2018-04-23T22:32:02.878Z,161164.34
2018-04-23T22:34:30.464Z,161164.98
2018-04-23T22:36:58.030Z,161104.88
2018-04-23T22:39:25.601Z,161131.66
2018-04-23T22:41:53.320Z,161161.09
2018-04-23T22:44:20.917Z,161184.56
2018-04-23T22:46:48.673Z,161155.19
2018-04-23T22:49:16.215Z,161170.20
2018-04-23T22:51:43.822Z,161179.36
2018-04-23T22:54:11.363Z,161203.53
2018-04-23T22:56:39.113Z,161196.97
2018-04-23T22:59:07.257Z,161178.70
2018-04-23T23:01:35.033Z,161180.66
2018-04-23T23:04:02.811Z,161183.91
2018-04-23T23:06:30.397Z,161196.97
2018-04-23T23:08:57.934Z,161214.00
2018-04-23T23:11:25.670Z,161206.14
2018-04-23T23:13:53.410Z,161204.84
2018-04-23T23:16:21.187Z,161204.84
2018-04-23T23:18:48.768Z,161239.47
2018-04-23T23:21:16.439Z,161212.69
2018-04-23T23:23:43.983Z,161217.25
2018-04-23T23:26:11.619Z,161233.56
2018-04-23T23:28:39.173Z,161217.25
2018-04-23T23:31:06.934Z,161226.41
2018-04-23T23:33:34.635Z,161223.81
2018-04-23T23:36:02.177Z,161257.75
2018-04-23T23:38:29.728Z,161256.45
2018-04-23T23:40:57.670Z,161269.52
2018-04-23T23:43:25.201Z,161247.34
2018-04-23T23:45:52.749Z,161264.97
2018-04-23T23:48:20.337Z,161291.75
2018-04-23T23:50:48.051Z,161276.08
2018-04-23T23:53:15.676Z,161298.97
2018-04-23T23:55:43.485Z,161304.81
2018-04-23T23:58:11.037Z,161309.42
